createdAt,value
2023-10-03T00:01:32.220Z,17.27
2023-10-03T00:03:33.865Z,17.23
2023-10-03T00:05:36.645Z,17.23
2023-10-03T00:07:38.852Z,17.24
2023-10-03T00:09:40.545Z,17.28
2023-10-03T00:11:42.098Z,17.28
2023-10-03T00:13:43.596Z,17.26
2023-10-03T00:15:46.088Z,17.24
2023-10-03T00:17:48.189Z,17.23
2023-10-03T00:19:49.729Z,17.20
2023-10-03T00:21:51.172Z,17.27
2023-10-03T00:23:52.717Z,17.26
2023-10-03T00:25:57.291Z,17.25
2023-10-03T00:28:01.909Z,17.38
2023-10-03T00:30:04.124Z,17.44
2023-10-03T00:32:07.481Z,17.41
2023-10-03T00:34:08.906Z,17.40
2023-10-03T00:36:25.229Z,17.45
2023-10-03T00:38:26.736Z,17.53
2023-10-03T00:40:29.193Z,17.47
2023-10-03T00:42:32.377Z,17.58
2023-10-03T00:44:33.903Z,17.51
2023-10-03T00:46:35.390Z,17.59
2023-10-03T00:48:36.908Z,17.66
2023-10-03T00:50:39.707Z,17.64
2023-10-03T00:52:43.379Z,17.69
2023-10-03T00:54:45.223Z,17.68
2023-10-03T00:56:48.502Z,17.72
2023-10-03T00:58:52.499Z,17.69
2023-10-03T01:00:56.067Z,17.73
2023-10-03T01:02:57.737Z,17.82
2023-10-03T01:04:59.329Z,17.85
2023-10-03T01:07:01.534Z,17.90
2023-10-03T01:09:04.330Z,17.85
2023-10-03T01:11:17.003Z,17.83
2023-10-03T01:13:21.162Z,17.83
2023-10-03T01:15:23.297Z,17.89
2023-10-03T01:17:27.565Z,17.94
2023-10-03T01:19:31.807Z,17.95
2023-10-03T01:21:33.317Z,17.93
2023-10-03T01:23:41.025Z,18.07
2023-10-03T01:25:45.644Z,18.10
2023-10-03T01:27:47.489Z,18.12
2023-10-03T01:29:49.098Z,18.14
2023-10-03T01:31:54.173Z,18.10
2023-10-03T01:33:55.679Z,18.13
2023-10-03T01:35:57.398Z,18.23
2023-10-03T01:37:59.001Z,18.23
2023-10-03T01:40:00.664Z,18.23
2023-10-03T01:42:02.124Z,18.15
2023-10-03T01:44:03.847Z,18.18
2023-10-03T01:46:05.349Z,18.15
2023-10-03T01:48:08.547Z,18.20
2023-10-03T01:50:12.524Z,18.21
2023-10-03T01:52:13.991Z,18.20
2023-10-03T01:54:16.905Z,18.25
2023-10-03T01:56:18.323Z,18.28
2023-10-03T01:58:24.807Z,18.26
2023-10-03T02:00:26.510Z,18.15
2023-10-03T02:02:28.102Z,18.19
2023-10-03T02:04:30.132Z,18.18
2023-10-03T02:06:31.868Z,18.17
2023-10-03T02:08:35.030Z,18.20
2023-10-03T02:10:36.620Z,18.25
2023-10-03T02:12:38.139Z,18.35
2023-10-03T02:14:40.699Z,18.26
2023-10-03T02:16:47.382Z,18.36
2023-10-03T02:18:48.715Z,18.25
2023-10-03T02:21:01.012Z,18.24
2023-10-03T02:23:06.274Z,18.29
2023-10-03T02:25:10.092Z,18.31
2023-10-03T02:27:12.201Z,18.24
2023-10-03T02:29:14.163Z,18.25
2023-10-03T02:31:16.292Z,18.21
2023-10-03T02:33:19.217Z,18.19
2023-10-03T02:35:25.614Z,18.13
2023-10-03T02:37:27.091Z,18.20
2023-10-03T02:39:36.433Z,18.22
2023-10-03T02:41:39.238Z,18.22
2023-10-03T02:43:43.598Z,18.24
2023-10-03T02:45:45.509Z,18.22
2023-10-03T02:47:47.158Z,18.20
2023-10-03T02:49:50.634Z,18.26
2023-10-03T02:51:52.083Z,18.20
2023-10-03T02:53:53.527Z,18.25
2023-10-03T02:55:55.399Z,18.30
2023-10-03T02:57:56.894Z,18.34
2023-10-03T02:59:58.905Z,18.27
2023-10-03T03:02:00.389Z,18.30
2023-10-03T03:04:02.819Z,18.48
2023-10-03T03:06:14.973Z,18.40
2023-10-03T03:08:19.643Z,18.41
2023-10-03T03:10:22.235Z,18.43
2023-10-03T03:12:23.649Z,18.40
2023-10-03T03:14:25.776Z,18.55
2023-10-03T03:16:27.298Z,18.48
2023-10-03T03:18:33.221Z,18.40
2023-10-03T03:20:39.459Z,18.37
2023-10-03T03:22:40.906Z,18.41
2023-10-03T03:24:42.936Z,18.42
2023-10-03T03:26:48.807Z,18.44
2023-10-03T03:28:51.783Z,18.51
2023-10-03T03:30:57.408Z,18.51
2023-10-03T03:33:01.991Z,18.43
2023-10-03T03:35:04.188Z,18.52
2023-10-03T03:37:24.195Z,18.56
2023-10-03T03:39:28.018Z,18.60
2023-10-03T03:41:30.265Z,18.52
2023-10-03T03:43:32.743Z,18.60
2023-10-03T03:45:35.011Z,18.60
2023-10-03T03:47:36.994Z,18.58
2023-10-03T03:49:38.539Z,18.53
2023-10-03T03:51:41.142Z,18.50
2023-10-03T03:53:43.550Z,18.48
2023-10-03T03:55:45.187Z,18.51
2023-10-03T03:57:46.842Z,18.54
2023-10-03T03:59:48.670Z,18.50
2023-10-03T04:01:51.452Z,18.51
2023-10-03T04:03:56.869Z,18.48
2023-10-03T04:05:58.665Z,18.44
2023-10-03T04:08:00.590Z,18.44
2023-10-03T04:10:02.657Z,18.53
2023-10-03T04:12:04.721Z,18.59
2023-10-03T04:14:07.970Z,18.56
2023-10-03T04:16:12.891Z,18.60
2023-10-03T04:18:17.207Z,18.61
2023-10-03T04:20:36.688Z,18.62
2023-10-03T04:22:38.143Z,18.64
2023-10-03T04:24:39.570Z,18.62
2023-10-03T04:26:44.010Z,18.60
2023-10-03T04:28:45.966Z,18.62
2023-10-03T04:30:49.065Z,18.60
2023-10-03T04:32:50.695Z,18.74
2023-10-03T04:34:52.382Z,18.68
2023-10-03T04:36:53.904Z,18.73
2023-10-03T04:38:55.484Z,18.69
2023-10-03T04:40:57.083Z,18.80
2023-10-03T04:42:59.184Z,18.71
2023-10-03T04:45:00.773Z,18.81
2023-10-03T04:47:04.642Z,18.73
2023-10-03T04:49:08.416Z,18.68
2023-10-03T04:51:15.355Z,18.70
2023-10-03T04:53:16.942Z,18.74
2023-10-03T04:55:19.800Z,18.75
2023-10-03T04:57:21.273Z,18.88
2023-10-03T04:59:22.924Z,18.81
2023-10-03T05:01:26.712Z,19.01
2023-10-03T05:03:29.685Z,18.88
2023-10-03T05:05:31.869Z,18.85
2023-10-03T05:07:33.548Z,18.80
2023-10-03T05:09:34.973Z,18.81
2023-10-03T05:11:36.486Z,18.90
2023-10-03T05:13:39.324Z,18.83
2023-10-03T05:15:40.945Z,18.80
2023-10-03T05:17:44.823Z,18.74
2023-10-03T05:19:46.476Z,18.65
2023-10-03T05:21:48.853Z,18.66
2023-10-03T05:23:50.423Z,18.60
2023-10-03T05:25:52.201Z,18.53
2023-10-03T05:27:54.477Z,18.52
2023-10-03T05:30:00.590Z,18.65
2023-10-03T05:32:02.326Z,18.73
2023-10-03T05:34:05.113Z,18.82
2023-10-03T05:36:06.791Z,18.73
2023-10-03T05:38:11.812Z,18.73
2023-10-03T05:40:13.621Z,18.75
2023-10-03T05:42:18.576Z,18.69
2023-10-03T05:44:22.247Z,18.63
2023-10-03T05:46:23.893Z,18.65
2023-10-03T05:48:26.692Z,18.67
2023-10-03T05:50:28.908Z,18.79
2023-10-03T05:52:30.425Z,18.83
2023-10-03T05:54:32.109Z,18.88
2023-10-03T05:56:33.695Z,18.89
2023-10-03T05:58:35.375Z,18.93
2023-10-03T06:00:37.245Z,18.94
2023-10-03T06:02:40.623Z,18.94
2023-10-03T06:04:42.268Z,18.97
2023-10-03T06:06:44.919Z,18.95
2023-10-03T06:08:50.069Z,18.99
2023-10-03T06:10:52.090Z,19.02
2023-10-03T06:12:55.644Z,19.03
2023-10-03T06:14:57.183Z,19.05
2023-10-03T06:16:58.799Z,19.04
2023-10-03T06:19:00.408Z,19.04
2023-10-03T06:21:01.935Z,19.10
2023-10-03T06:23:05.340Z,19.08
2023-10-03T06:25:08.496Z,19.12
2023-10-03T06:27:12.284Z,19.16
2023-10-03T06:29:15.991Z,19.19
2023-10-03T06:31:21.754Z,19.28
2023-10-03T06:33:23.386Z,19.28
2023-10-03T06:35:24.946Z,19.27
2023-10-03T06:37:26.529Z,19.33
2023-10-03T06:39:28.154Z,19.37
2023-10-03T06:41:29.586Z,19.34
2023-10-03T06:43:32.225Z,19.41
2023-10-03T06:45:33.649Z,19.40
2023-10-03T06:47:36.280Z,19.51
2023-10-03T06:49:37.949Z,19.47
2023-10-03T06:51:39.429Z,19.50
2023-10-03T06:53:48.286Z,19.54
2023-10-03T06:55:51.077Z,19.55
2023-10-03T06:57:53.306Z,19.56
2023-10-03T06:59:55.763Z,19.66
2023-10-03T07:01:57.305Z,19.64
2023-10-03T07:03:59.449Z,19.62
2023-10-03T07:06:01.124Z,19.63
2023-10-03T07:08:04.640Z,19.68
2023-10-03T07:10:08.461Z,19.69
2023-10-03T07:12:09.986Z,19.68
2023-10-03T07:14:15.404Z,19.66
2023-10-03T07:16:17.489Z,19.68
2023-10-03T07:18:19.395Z,19.67
2023-10-03T07:20:21.357Z,19.64
2023-10-03T07:22:22.907Z,19.70
2023-10-03T07:24:29.615Z,19.75
2023-10-03T07:26:31.200Z,19.79
2023-10-03T07:28:33.271Z,19.81
2023-10-03T07:30:35.108Z,19.79
2023-10-03T07:32:36.786Z,19.81
2023-10-03T07:34:43.501Z,19.81
2023-10-03T07:36:46.424Z,19.78
2023-10-03T07:38:48.043Z,19.76
2023-10-03T07:40:49.647Z,19.71
2023-10-03T07:42:51.177Z,19.71
2023-10-03T07:44:53.489Z,19.68
2023-10-03T07:46:54.946Z,19.67
2023-10-03T07:48:56.507Z,19.68
2023-10-03T07:50:58.162Z,19.60
2023-10-03T07:52:59.791Z,19.69
2023-10-03T07:55:01.775Z,19.62
2023-10-03T07:57:07.088Z,19.59
2023-10-03T07:59:08.792Z,19.64
2023-10-03T08:01:10.327Z,19.67
2023-10-03T08:03:13.212Z,19.64
2023-10-03T08:05:14.920Z,19.70
2023-10-03T08:07:23.301Z,19.73
2023-10-03T08:09:26.284Z,19.86
2023-10-03T08:11:31.336Z,19.93
2023-10-03T08:13:32.839Z,19.99
2023-10-03T08:15:34.318Z,19.99
2023-10-03T08:17:37.260Z,20.03
2023-10-03T08:19:41.472Z,20.08
2023-10-03T08:21:45.169Z,20.17
2023-10-03T08:23:52.709Z,20.15
2023-10-03T08:26:02.411Z,20.08
2023-10-03T08:28:10.979Z,20.14
2023-10-03T08:30:27.121Z,20.14
2023-10-03T08:32:29.140Z,20.15
2023-10-03T08:34:31.644Z,20.07
2023-10-03T08:36:39.072Z,20.01
2023-10-03T08:38:44.685Z,20.07
2023-10-03T08:40:50.991Z,20.08
2023-10-03T08:42:54.384Z,20.00
2023-10-03T08:45:00.177Z,19.96
2023-10-03T08:47:03.084Z,19.93
2023-10-03T08:49:09.920Z,20.00
2023-10-03T08:51:18.230Z,20.08
2023-10-03T08:53:28.743Z,20.24
2023-10-03T08:55:32.283Z,20.24
2023-10-03T08:57:34.023Z,20.26
2023-10-03T08:59:35.474Z,20.29
2023-10-03T09:01:47.895Z,20.37
2023-10-03T09:03:59.677Z,20.53
2023-10-03T09:06:02.004Z,20.23
2023-10-03T09:08:09.471Z,20.13
2023-10-03T09:10:23.658Z,20.08
2023-10-03T09:12:27.010Z,20.10
2023-10-03T09:14:29.159Z,20.10
2023-10-03T09:16:30.739Z,20.17
2023-10-03T09:18:41.993Z,20.34
2023-10-03T09:20:44.025Z,20.46
2023-10-03T09:22:48.098Z,20.63
2023-10-03T09:24:49.782Z,20.77
2023-10-03T09:27:03.355Z,20.60
2023-10-03T09:29:10.577Z,20.52
2023-10-03T09:31:12.162Z,20.67
2023-10-03T09:33:17.887Z,20.50
2023-10-03T09:35:19.587Z,20.43
2023-10-03T09:37:21.201Z,20.45
2023-10-03T09:39:22.753Z,20.44
2023-10-03T09:41:25.668Z,20.46
2023-10-03T09:43:30.582Z,20.52
2023-10-03T09:45:32.623Z,20.32
2023-10-03T09:47:39.068Z,20.21
2023-10-03T09:49:41.868Z,20.41
2023-10-03T09:51:52.802Z,20.39
2023-10-03T09:53:58.394Z,20.36
2023-10-03T09:56:02.095Z,20.38
2023-10-03T09:58:05.706Z,20.15
2023-10-03T10:00:24.676Z,20.40
2023-10-03T10:02:37.065Z,20.31
2023-10-03T10:04:38.741Z,20.46
2023-10-03T10:06:52.162Z,20.53
2023-10-03T10:09:14.306Z,20.73
2023-10-03T10:11:16.334Z,20.76
2023-10-03T10:13:23.557Z,20.93
2023-10-03T10:15:28.259Z,20.81
2023-10-03T10:17:46.438Z,20.87
2023-10-03T10:20:14.306Z,20.93
2023-10-03T10:22:15.874Z,21.04
2023-10-03T10:24:17.783Z,21.01
2023-10-03T10:26:34.107Z,21.19
2023-10-03T10:28:38.756Z,21.10
2023-10-03T10:30:44.125Z,21.01
2023-10-03T10:33:22.083Z,20.95
2023-10-03T10:35:57.827Z,20.60
2023-10-03T10:37:59.801Z,20.55
2023-10-03T10:40:33.951Z,20.47
2023-10-03T10:42:56.546Z,20.60
2023-10-03T10:45:03.962Z,20.49
2023-10-03T10:47:06.895Z,20.58
2023-10-03T10:49:38.394Z,20.39
2023-10-03T10:51:39.889Z,20.33
2023-10-03T10:53:46.015Z,20.20
2023-10-03T10:55:47.676Z,19.98
2023-10-03T10:58:09.587Z,19.91
2023-10-03T11:00:18.592Z,19.57
2023-10-03T11:02:29.783Z,19.28
2023-10-03T11:04:35.946Z,18.76
2023-10-03T11:06:37.538Z,18.45
2023-10-03T11:08:47.316Z,18.33
2023-10-03T11:10:56.130Z,18.23
2023-10-03T11:13:04.964Z,18.28
2023-10-03T11:15:11.953Z,18.20
2023-10-03T11:17:13.456Z,18.04
2023-10-03T11:19:15.019Z,18.00
2023-10-03T11:21:17.380Z,17.98
2023-10-03T11:23:19.483Z,17.95
2023-10-03T11:25:21.304Z,18.01
2023-10-03T11:27:30.579Z,17.74
2023-10-03T11:29:47.969Z,17.89
2023-10-03T11:31:49.615Z,17.91
2023-10-03T11:33:51.160Z,18.10
2023-10-03T11:35:53.926Z,18.12
2023-10-03T11:37:55.538Z,17.98
2023-10-03T11:40:08.566Z,17.93
2023-10-03T11:42:25.608Z,17.85
2023-10-03T11:44:28.305Z,17.96
2023-10-03T11:46:39.358Z,17.79
2023-10-03T11:48:44.893Z,17.98
2023-10-03T11:50:47.335Z,17.80
2023-10-03T11:52:50.014Z,18.01
2023-10-03T11:54:51.494Z,18.16
2023-10-03T11:56:53.041Z,18.23
2023-10-03T11:58:55.371Z,18.28
2023-10-03T12:00:57.337Z,18.48
2023-10-03T12:02:59.347Z,18.38
2023-10-03T12:05:01.225Z,18.53
2023-10-03T12:07:02.689Z,18.54
2023-10-03T12:09:05.067Z,18.52
2023-10-03T12:11:07.515Z,18.60
2023-10-03T12:13:10.852Z,18.77
2023-10-03T12:15:13.780Z,18.90
2023-10-03T12:17:15.280Z,18.63
2023-10-03T12:19:17.002Z,18.61
2023-10-03T12:21:18.651Z,18.35
2023-10-03T12:23:20.180Z,18.26
2023-10-03T12:25:24.833Z,18.24
2023-10-03T12:27:27.572Z,18.06
2023-10-03T12:29:32.955Z,17.87
2023-10-03T12:31:34.882Z,17.79
2023-10-03T12:33:36.539Z,17.74
2023-10-03T12:35:38.117Z,17.26
2023-10-03T12:37:41.647Z,17.34
2023-10-03T12:39:43.208Z,17.34
2023-10-03T12:41:47.901Z,17.34
2023-10-03T12:43:49.693Z,17.25
2023-10-03T12:45:51.281Z,17.29
2023-10-03T12:47:54.870Z,17.18
2023-10-03T12:49:58.797Z,17.19
2023-10-03T12:52:01.216Z,17.12
2023-10-03T12:54:05.730Z,17.09
2023-10-03T12:56:10.013Z,17.01
2023-10-03T12:58:13.428Z,16.75
2023-10-03T13:00:21.400Z,16.87
2023-10-03T13:02:23.892Z,16.89
2023-10-03T13:04:28.946Z,16.96
2023-10-03T13:06:31.726Z,16.78
2023-10-03T13:08:33.171Z,16.97
2023-10-03T13:10:35.282Z,17.26
2023-10-03T13:12:36.758Z,17.19
2023-10-03T13:14:38.235Z,17.25
2023-10-03T13:16:40.164Z,17.16
2023-10-03T13:18:41.777Z,17.12
2023-10-03T13:20:44.172Z,16.93
2023-10-03T13:22:48.422Z,16.89
2023-10-03T13:24:50.164Z,16.81
2023-10-03T13:26:54.187Z,16.80
2023-10-03T13:28:55.699Z,16.60
2023-10-03T13:30:57.518Z,16.62
2023-10-03T13:33:00.028Z,16.61
2023-10-03T13:35:04.392Z,16.59
2023-10-03T13:37:06.844Z,16.70
2023-10-03T13:39:09.253Z,16.63
2023-10-03T13:41:11.762Z,16.70
2023-10-03T13:43:20.081Z,16.97
2023-10-03T13:45:22.369Z,16.94
2023-10-03T13:47:24.724Z,17.23
2023-10-03T13:49:26.528Z,17.08
2023-10-03T13:51:30.584Z,17.32
2023-10-03T13:53:32.606Z,17.11
2023-10-03T13:55:34.483Z,17.37
2023-10-03T13:57:41.344Z,17.05
2023-10-03T13:59:45.549Z,17.15
2023-10-03T14:01:47.117Z,16.89
2023-10-03T14:03:48.691Z,16.99
2023-10-03T14:05:50.145Z,17.09
2023-10-03T14:07:51.944Z,17.07
2023-10-03T14:09:54.746Z,17.03
2023-10-03T14:11:57.870Z,16.75
2023-10-03T14:13:59.366Z,16.52
2023-10-03T14:16:00.813Z,16.55
2023-10-03T14:18:02.505Z,16.44
2023-10-03T14:20:06.637Z,16.47
2023-10-03T14:22:08.074Z,16.48
2023-10-03T14:24:10.484Z,16.55
2023-10-03T14:26:12.069Z,17.08
2023-10-03T14:28:13.565Z,17.90
2023-10-03T14:30:15.219Z,16.97
2023-10-03T14:32:16.922Z,18.91
2023-10-03T14:34:18.668Z,18.15
2023-10-03T14:36:20.138Z,16.97
2023-10-03T14:38:21.733Z,16.81
2023-10-03T14:40:23.205Z,17.12
2023-10-03T14:42:24.899Z,16.89
2023-10-03T14:44:26.388Z,16.64
2023-10-03T14:46:28.782Z,16.34
2023-10-03T14:48:30.346Z,16.12
2023-10-03T14:50:33.231Z,15.97
2023-10-03T14:52:35.290Z,15.68
2023-10-03T14:54:36.807Z,15.56
2023-10-03T14:56:39.253Z,15.51
2023-10-03T14:58:40.709Z,15.36
2023-10-03T15:00:43.198Z,15.31
2023-10-03T15:02:45.614Z,15.12
2023-10-03T15:04:47.192Z,15.19
2023-10-03T15:06:48.807Z,14.90
2023-10-03T15:08:50.429Z,15.30
2023-10-03T15:11:02.711Z,16.11
2023-10-03T15:13:05.378Z,16.53
2023-10-03T15:15:07.401Z,16.79
2023-10-03T15:17:11.922Z,16.89
2023-10-03T15:19:13.837Z,16.08
2023-10-03T15:21:16.803Z,15.99
2023-10-03T15:23:18.677Z,15.68
2023-10-03T15:25:20.315Z,15.32
2023-10-03T15:27:22.454Z,15.33
2023-10-03T15:29:24.204Z,15.26
2023-10-03T15:31:26.348Z,15.01
2023-10-03T15:33:28.531Z,15.07
2023-10-03T15:35:30.043Z,14.87
2023-10-03T15:37:32.096Z,14.84
2023-10-03T15:39:33.554Z,14.90
2023-10-03T15:41:37.045Z,14.78
2023-10-03T15:43:38.497Z,14.77
2023-10-03T15:45:40.561Z,14.76
2023-10-03T15:47:42.585Z,14.63
2023-10-03T15:49:44.550Z,14.43
2023-10-03T15:51:48.377Z,14.45
2023-10-03T15:53:50.094Z,14.43
2023-10-03T15:55:51.611Z,14.45
2023-10-03T15:57:53.139Z,14.56
2023-10-03T15:59:54.720Z,14.49
2023-10-03T16:01:56.974Z,14.56
2023-10-03T16:03:58.752Z,14.43
2023-10-03T16:06:00.399Z,14.55
2023-10-03T16:08:02.960Z,14.50
2023-10-03T16:10:05.359Z,14.51
2023-10-03T16:12:07.631Z,14.35
2023-10-03T16:14:09.136Z,14.47
2023-10-03T16:16:11.151Z,14.41
2023-10-03T16:18:12.755Z,14.42
2023-10-03T16:20:17.273Z,14.38
2023-10-03T16:22:18.765Z,14.41
2023-10-03T16:24:22.621Z,14.37
2023-10-03T16:26:24.595Z,14.42
2023-10-03T16:28:26.127Z,14.38
2023-10-03T16:30:27.733Z,14.37
2023-10-03T16:32:29.197Z,14.36
2023-10-03T16:34:31.155Z,14.38
2023-10-03T16:36:32.600Z,14.32
2023-10-03T16:38:34.873Z,14.15
2023-10-03T16:40:36.357Z,14.22
2023-10-03T16:42:39.193Z,14.11
2023-10-03T16:44:40.790Z,14.09
2023-10-03T16:46:42.319Z,14.05
2023-10-03T16:48:44.433Z,14.03
2023-10-03T16:50:46.032Z,14.05
2023-10-03T16:52:48.442Z,13.94
2023-10-03T16:54:49.874Z,13.83
2023-10-03T16:56:53.303Z,13.82
2023-10-03T16:58:54.752Z,13.69
2023-10-03T17:00:56.233Z,13.67
2023-10-03T17:02:57.884Z,13.57
2023-10-03T17:04:59.509Z,13.54
2023-10-03T17:07:00.959Z,13.46
2023-10-03T17:09:04.306Z,13.43
2023-10-03T17:11:05.943Z,13.35
2023-10-03T17:13:07.714Z,13.30
2023-10-03T17:15:13.074Z,13.21
2023-10-03T17:17:14.532Z,13.20
2023-10-03T17:19:16.232Z,13.16
2023-10-03T17:21:21.713Z,13.11
2023-10-03T17:23:23.308Z,13.04
2023-10-03T17:25:25.571Z,13.05
2023-10-03T17:27:26.984Z,13.01
2023-10-03T17:29:30.269Z,12.92
2023-10-03T17:31:31.679Z,12.98
2023-10-03T17:33:33.322Z,12.87
2023-10-03T17:35:34.962Z,12.83
2023-10-03T17:37:45.418Z,12.78
2023-10-03T17:39:47.055Z,12.75
2023-10-03T17:41:49.333Z,12.72
2023-10-03T17:43:50.802Z,12.67
2023-10-03T17:45:52.326Z,12.66
2023-10-03T17:47:53.910Z,12.58
2023-10-03T17:49:57.328Z,12.57
2023-10-03T17:51:58.771Z,12.54
2023-10-03T17:54:00.325Z,12.51
2023-10-03T17:56:03.442Z,12.56
2023-10-03T17:58:04.902Z,12.55
2023-10-03T18:00:11.864Z,12.48
2023-10-03T18:04:15.284Z,12.41
2023-10-03T18:06:17.072Z,12.43
2023-10-03T18:08:18.625Z,12.44
2023-10-03T18:10:23.757Z,12.38
2023-10-03T18:12:25.330Z,12.32
2023-10-03T18:14:26.785Z,12.31
2023-10-03T18:16:28.227Z,12.24
2023-10-03T18:18:30.746Z,12.24
2023-10-03T18:20:33.179Z,12.19
2023-10-03T18:22:34.818Z,12.13
2023-10-03T18:24:37.405Z,12.11
2023-10-03T18:26:39.179Z,12.08
2023-10-03T18:28:40.706Z,12.05
2023-10-03T18:30:45.094Z,12.07
2023-10-03T18:32:47.925Z,12.05
2023-10-03T18:34:49.465Z,12.01
2023-10-03T18:36:51.119Z,11.99
2023-10-03T18:38:52.626Z,11.97
2023-10-03T18:40:54.602Z,11.94
2023-10-03T18:42:56.093Z,11.94
2023-10-03T18:44:57.542Z,11.89
2023-10-03T18:46:59.020Z,11.86
2023-10-03T18:49:00.470Z,11.83
2023-10-03T18:51:03.726Z,11.80
2023-10-03T18:53:07.038Z,11.76
2023-10-03T18:55:13.043Z,11.72
2023-10-03T18:57:14.951Z,11.72
2023-10-03T18:59:16.902Z,11.72
2023-10-03T19:01:23.654Z,11.67
2023-10-03T19:03:31.499Z,11.64
2023-10-03T19:05:33.135Z,11.64
2023-10-03T19:07:41.006Z,11.63
2023-10-03T19:09:42.645Z,11.58
2023-10-03T19:11:46.634Z,11.55
2023-10-03T19:13:48.300Z,11.53
2023-10-03T19:15:50.279Z,11.53
2023-10-03T19:17:51.953Z,11.46
2023-10-03T19:19:57.584Z,11.47
2023-10-03T19:21:59.094Z,11.47
2023-10-03T19:24:00.550Z,11.44
2023-10-03T19:26:01.997Z,11.44
2023-10-03T19:28:04.099Z,11.40
2023-10-03T19:30:08.350Z,11.39
2023-10-03T19:32:10.450Z,11.36
2023-10-03T19:34:12.228Z,11.36
2023-10-03T19:36:14.896Z,11.39
2023-10-03T19:38:16.386Z,11.38
2023-10-03T19:40:19.139Z,11.35
2023-10-03T19:42:22.992Z,11.35
2023-10-03T19:44:24.520Z,11.39
2023-10-03T19:46:27.005Z,11.43
2023-10-03T19:48:28.772Z,11.49
2023-10-03T19:50:30.413Z,11.55
2023-10-03T19:52:33.226Z,11.57
2023-10-03T19:54:34.699Z,11.64
2023-10-03T19:56:37.041Z,11.66
2023-10-03T19:58:41.608Z,11.65
2023-10-03T20:00:43.941Z,11.75
2023-10-03T20:02:45.863Z,11.75
2023-10-03T20:04:47.606Z,11.78
2023-10-03T20:06:49.138Z,11.80
2023-10-03T20:08:50.704Z,11.83
2023-10-03T20:10:55.305Z,11.88
2023-10-03T20:12:56.777Z,11.92
2023-10-03T20:14:58.723Z,11.94
2023-10-03T20:17:00.676Z,11.97
2023-10-03T20:19:02.646Z,11.97
2023-10-03T20:21:05.176Z,11.98
2023-10-03T20:23:07.187Z,11.98
2023-10-03T20:25:10.238Z,12.03
2023-10-03T20:27:11.799Z,12.04
2023-10-03T20:29:13.234Z,12.01
2023-10-03T20:31:14.803Z,12.02
2023-10-03T20:33:16.322Z,12.11
2023-10-03T20:35:17.986Z,12.09
2023-10-03T20:37:19.545Z,12.15
2023-10-03T20:39:21.831Z,12.14
2023-10-03T20:41:23.408Z,12.20
2023-10-03T20:43:24.870Z,12.20
2023-10-03T20:45:26.348Z,12.18
2023-10-03T20:47:27.872Z,12.17
2023-10-03T20:49:29.379Z,12.19
2023-10-03T20:51:30.801Z,12.23
2023-10-03T20:53:32.260Z,12.21
2023-10-03T20:55:36.573Z,12.24
2023-10-03T20:57:38.644Z,12.26
2023-10-03T20:59:40.146Z,12.25
2023-10-03T21:01:42.877Z,12.21
2023-10-03T21:03:45.337Z,12.15
2023-10-03T21:05:47.354Z,12.11
2023-10-03T21:07:49.565Z,12.09
2023-10-03T21:09:51.724Z,12.07
2023-10-03T21:11:53.316Z,12.08
2023-10-03T21:13:54.981Z,12.14
2023-10-03T21:15:56.411Z,12.14
2023-10-03T21:17:58.030Z,12.17
2023-10-03T21:19:59.656Z,12.17
2023-10-03T21:22:01.200Z,12.23
2023-10-03T21:24:02.741Z,12.18
2023-10-03T21:26:10.856Z,12.17
2023-10-03T21:28:13.421Z,12.29
2023-10-03T21:30:14.944Z,12.26
2023-10-03T21:32:16.450Z,12.29
2023-10-03T21:34:17.929Z,12.30
2023-10-03T21:36:20.004Z,12.26
2023-10-03T21:38:22.546Z,12.26
2023-10-03T21:40:24.038Z,12.26
2023-10-03T21:42:28.999Z,12.29
2023-10-03T21:44:32.747Z,12.28
2023-10-03T21:46:34.255Z,12.27
2023-10-03T21:48:36.279Z,12.27
2023-10-03T21:50:38.179Z,12.26
2023-10-03T21:52:40.141Z,12.25
2023-10-03T21:54:41.540Z,12.21
2023-10-03T21:56:43.300Z,12.24
2023-10-03T21:58:44.854Z,12.25
2023-10-03T22:00:50.304Z,12.21
2023-10-03T22:02:56.226Z,12.27
2023-10-03T22:04:58.864Z,12.22
2023-10-03T22:07:00.764Z,12.27
2023-10-03T22:11:27.766Z,12.29
2023-10-03T22:13:31.741Z,12.23
2023-10-03T22:15:33.274Z,12.24
2023-10-03T22:17:35.081Z,12.26
2023-10-03T22:19:36.611Z,12.27
2023-10-03T22:21:38.296Z,12.28
2023-10-03T22:23:40.712Z,12.26
2023-10-03T22:25:42.217Z,12.24
2023-10-03T22:27:43.676Z,12.28
2023-10-03T22:29:45.338Z,12.28
2023-10-03T22:31:46.838Z,12.31
2023-10-03T22:33:49.241Z,12.27
2023-10-03T22:35:51.103Z,12.27
2023-10-03T22:38:05.892Z,12.21
2023-10-03T22:40:11.617Z,12.15
2023-10-03T22:42:13.386Z,12.09
2023-10-03T22:44:14.856Z,12.04
2023-10-03T22:46:16.303Z,12.00
2023-10-03T22:48:18.150Z,11.97
2023-10-03T22:50:19.810Z,11.94
2023-10-03T22:52:21.942Z,11.90
2023-10-03T22:54:23.457Z,11.88
2023-10-03T22:56:26.740Z,11.88
2023-10-03T22:58:28.275Z,11.81
2023-10-03T23:00:30.358Z,11.78
2023-10-03T23:02:32.274Z,11.70
2023-10-03T23:04:33.835Z,11.70
2023-10-03T23:06:35.344Z,11.67
2023-10-03T23:08:36.959Z,11.62
2023-10-03T23:10:38.481Z,11.65
2023-10-03T23:12:40.372Z,11.58
2023-10-03T23:14:41.960Z,11.54
2023-10-03T23:16:43.434Z,11.59
2023-10-03T23:18:44.922Z,11.53
2023-10-03T23:20:47.363Z,11.50
2023-10-03T23:22:50.901Z,11.40
2023-10-03T23:24:53.351Z,11.44
2023-10-03T23:26:55.823Z,11.36
2023-10-03T23:28:57.587Z,11.34
2023-10-03T23:30:59.025Z,11.32
2023-10-03T23:33:00.522Z,11.27
2023-10-03T23:35:02.007Z,11.27
2023-10-03T23:37:04.431Z,11.22
2023-10-03T23:39:07.508Z,11.22
2023-10-03T23:41:10.741Z,11.18
2023-10-03T23:43:12.284Z,11.15
2023-10-03T23:45:15.152Z,11.07
2023-10-03T23:47:17.282Z,11.11
2023-10-03T23:49:18.730Z,11.10
2023-10-03T23:51:20.179Z,11.09
2023-10-03T23:53:22.945Z,11.03
2023-10-03T23:55:24.611Z,11.00
2023-10-03T23:57:29.590Z,11.04
2023-10-03T23:59:31.444Z,11.01
